Time;durP1;ratioP1;P1;durP2;ratioP2;P2;SDS_P1;SDS_P2;PMS_P1;PMS_P2;Temp;Humidity;BMP_temperature;BMP_pressure;BME280_temperature;BME280_humidity;BME280_pressure;Samples;Min_cycle;Max_cycle;Signal;HPM_P1;HPM_P2
2021/11/29 00:00:50;;;;;;;6.55;5.10;;;;;;;;;;5055719;28;20292;-86
2021/11/29 00:03:19;;;;;;;6.60;5.18;;;;;;;;;;5055739;28;20209;-85
2021/11/29 00:05:47;;;;;;;6.78;6.07;;;;;;;;;;5054919;28;20687;-86
2021/11/29 00:08:15;;;;;;;5.05;4.25;;;;;;;;;;5054293;28;20245;-86
2021/11/29 00:10:43;;;;;;;6.10;4.80;;;;;;;;;;5054850;28;20240;-85
2021/11/29 00:13:11;;;;;;;5.38;4.88;;;;;;;;;;5055451;28;20229;-85
2021/11/29 00:15:40;;;;;;;7.28;6.00;;;;;;;;;;5055552;28;20614;-85
2021/11/29 00:18:07;;;;;;;6.78;5.68;;;;;;;;;;5054392;28;20228;-86
2021/11/29 00:20:36;;;;;;;5.55;4.60;;;;;;;;;;5054711;28;20218;-85
2021/11/29 00:23:04;;;;;;;6.72;5.10;;;;;;;;;;5054903;28;20580;-85
2021/11/29 00:25:31;;;;;;;4.70;4.30;;;;;;;;;;5054583;28;20663;-86
2021/11/29 00:27:59;;;;;;;5.10;4.68;;;;;;;;;;5054020;28;20213;-86
2021/11/29 00:30:27;;;;;;;6.82;4.50;;;;;;;;;;5053946;28;20232;-86
2021/11/29 00:32:57;;;;;;;5.40;4.68;;;;;;;;;;5053725;28;20232;-86
2021/11/29 00:35:24;;;;;;;4.30;3.88;;;;;;;;;;5054725;28;20861;-85
2021/11/29 00:37:52;;;;;;;6.68;5.18;;;;;;;;;;5055875;28;20233;-85
2021/11/29 00:40:20;;;;;;;5.82;5.20;;;;;;;;;;5056062;28;20186;-85
2021/11/29 00:42:47;;;;;;;4.50;4.10;;;;;;;;;;5055969;28;20244;-86
2021/11/29 00:45:15;;;;;;;5.95;3.83;;;;;;;;;;5054944;28;20275;-86
2021/11/29 00:47:43;;;;;;;3.85;3.45;;;;;;;;;;5055398;28;20205;-87
2021/11/29 00:50:13;;;;;;;5.15;4.70;;;;;;;;;;5054648;28;20269;-86
2021/11/29 00:52:41;;;;;;;5.15;4.65;;;;;;;;;;5055654;28;20259;-87
2021/11/29 00:55:10;;;;;;;4.95;4.47;;;;;;;;;;5055887;28;20228;-86
2021/11/29 00:57:38;;;;;;;4.40;3.80;;;;;;;;;;5056099;28;20190;-86
2021/11/29 01:00:08;;;;;;;4.10;3.67;;;;;;;;;;5055857;28;20268;-86
2021/11/29 01:02:36;;;;;;;5.22;4.43;;;;;;;;;;5057081;28;20220;-86
2021/11/29 01:05:04;;;;;;;5.78;4.60;;;;;;;;;;5056517;28;20237;-86
2021/11/29 01:07:33;;;;;;;4.53;3.83;;;;;;;;;;5056199;28;20241;-87
2021/11/29 01:10:02;;;;;;;4.75;3.88;;;;;;;;;;5054131;28;20259;-86
2021/11/29 01:12:29;;;;;;;4.88;4.32;;;;;;;;;;5054248;28;20205;-86
2021/11/29 01:14:58;;;;;;;4.85;4.35;;;;;;;;;;5050172;28;20616;-87
2021/11/29 01:17:26;;;;;;;4.30;3.90;;;;;;;;;;5053552;28;20221;-86
2021/11/29 01:19:54;;;;;;;4.00;3.60;;;;;;;;;;5053533;28;20287;-87
2021/11/29 01:22:22;;;;;;;4.45;4.10;;;;;;;;;;5053362;28;20221;-87
2021/11/29 01:24:51;;;;;;;4.75;3.50;;;;;;;;;;5053663;28;20225;-86
2021/11/29 01:27:19;;;;;;;4.25;3.53;;;;;;;;;;5053587;28;20297;-86
2021/11/29 01:29:47;;;;;;;3.42;3.10;;;;;;;;;;5053450;28;20253;-87
2021/11/29 01:32:15;;;;;;;4.50;4.10;;;;;;;;;;5053348;28;20210;-87
2021/11/29 01:34:44;;;;;;;6.03;4.82;;;;;;;;;;5052951;28;20182;-86
2021/11/29 01:37:11;;;;;;;3.85;3.55;;;;;;;;;;5056636;28;20233;-85
2021/11/29 01:39:39;;;;;;;4.68;4.07;;;;;;;;;;5057167;28;20275;-87
2021/11/29 01:42:10;;;;;;;4.30;3.90;;;;;;;;;;5057026;28;20659;-85
2021/11/29 01:44:39;;;;;;;3.53;3.22;;;;;;;;;;5057186;28;20655;-86
2021/11/29 01:47:07;;;;;;;5.30;4.28;;;;;;;;;;5057110;28;20297;-87
2021/11/29 01:49:35;;;;;;;4.65;4.18;;;;;;;;;;5057260;28;20229;-86
2021/11/29 01:52:04;;;;;;;5.15;4.65;;;;;;;;;;5057376;28;20210;-86
2021/11/29 01:54:32;;;;;;;4.07;3.53;;;;;;;;;;5056762;28;20237;-87
2021/11/29 01:57:00;;;;;;;5.07;4.57;;;;;;;;;;5056870;28;20214;-87
2021/11/29 01:59:29;;;;;;;4.85;4.40;;;;;;;;;;5056910;28;20260;-87
2021/11/29 02:01:57;;;;;;;4.40;4.07;;;;;;;;;;5056828;28;20210;-87
2021/11/29 02:04:25;;;;;;;3.85;3.55;;;;;;;;;;5056714;28;20605;-87
2021/11/29 02:06:53;;;;;;;3.95;3.65;;;;;;;;;;5056634;28;20241;-86
2021/11/29 02:09:20;;;;;;;3.67;3.10;;;;;;;;;;5056104;28;20260;-86
2021/11/29 02:11:48;;;;;;;3.60;3.10;;;;;;;;;;5056209;28;20213;-86
2021/11/29 02:14:15;;;;;;;3.50;3.20;;;;;;;;;;5056771;28;20225;-86
2021/11/29 02:16:45;;;;;;;4.00;3.50;;;;;;;;;;5056249;28;20332;-87
2021/11/29 02:19:13;;;;;;;2.63;2.42;;;;;;;;;;5056188;28;20221;-87
2021/11/29 02:21:42;;;;;;;3.88;3.58;;;;;;;;;;5055925;28;20285;-87
2021/11/29 02:24:10;;;;;;;2.72;2.53;;;;;;;;;;5056072;28;20217;-85
2021/11/29 02:26:39;;;;;;;2.47;2.30;;;;;;;;;;5056448;28;20217;-86
2021/11/29 02:29:10;;;;;;;2.60;2.40;;;;;;;;;;5057651;28;20241;-86
2021/11/29 02:31:43;;;;;;;3.00;2.80;;;;;;;;;;5057434;28;20221;-86
2021/11/29 02:34:13;;;;;;;2.78;2.20;;;;;;;;;;5057084;28;20599;-86
2021/11/29 02:36:43;;;;;;;2.17;2.00;;;;;;;;;;5057504;28;20563;-86
2021/11/29 02:39:13;;;;;;;4.05;2.58;;;;;;;;;;5057503;28;20726;-86
2021/11/29 02:41:42;;;;;;;5.53;3.00;;;;;;;;;;5057103;28;20217;-87
2021/11/29 02:44:11;;;;;;;4.90;2.72;;;;;;;;;;5057252;28;20569;-86
2021/11/29 02:46:39;;;;;;;3.80;3.33;;;;;;;;;;5055158;28;20751;-87
2021/11/29 02:49:08;;;;;;;3.03;2.28;;;;;;;;;;5067304;22;20774;-81
2021/11/29 02:51:39;;;;;;;2.80;2.60;;;;;;;;;;5035054;28;20234;-81
2021/11/29 02:54:12;;;;;;;2.50;2.30;;;;;;;;;;5034768;28;20214;-81
2021/11/29 02:56:42;;;;;;;2.60;2.40;;;;;;;;;;5035262;28;20273;-81
2021/11/29 02:59:13;;;;;;;2.58;2.33;;;;;;;;;;5035102;28;20327;-81
2021/11/29 03:01:42;;;;;;;4.15;2.35;;;;;;;;;;5035459;28;20255;-81
2021/11/29 03:04:10;;;;;;;2.40;1.80;;;;;;;;;;5035423;28;20214;-81
2021/11/29 03:06:37;;;;;;;3.47;2.70;;;;;;;;;;5035706;28;20274;-81
2021/11/29 03:09:08;;;;;;;2.40;2.20;;;;;;;;;;5034738;28;20261;-81
2021/11/29 03:11:37;;;;;;;2.88;2.58;;;;;;;;;;5034775;28;20229;-81
2021/11/29 03:14:05;;;;;;;2.42;2.10;;;;;;;;;;5035340;28;20234;-81
2021/11/29 03:16:33;;;;;;;6.80;3.10;;;;;;;;;;5035132;28;20293;-81
2021/11/29 03:19:01;;;;;;;3.78;2.40;;;;;;;;;;5035123;28;20309;-81
2021/11/29 03:21:30;;;;;;;2.65;2.45;;;;;;;;;;5035595;28;20699;-81
2021/11/29 03:24:00;;;;;;;3.65;2.38;;;;;;;;;;5036658;28;20217;-81
2021/11/29 03:26:30;;;;;;;2.60;2.10;;;;;;;;;;5037280;28;20197;-81
2021/11/29 03:29:00;;;;;;;4.28;2.45;;;;;;;;;;5036766;28;20272;-81
2021/11/29 03:31:32;;;;;;;2.97;2.60;;;;;;;;;;5036994;28;20218;-82
2021/11/29 03:34:01;;;;;;;2.65;1.92;;;;;;;;;;5020360;28;20217;-81
2021/11/29 03:36:31;;;;;;;3.38;2.80;;;;;;;;;;5016790;28;20267;-82
2021/11/29 03:39:00;;;;;;;3.53;2.92;;;;;;;;;;5016680;28;20282;-81
2021/11/29 03:41:30;;;;;;;12.05;3.85;;;;;;;;;;5015983;28;20242;-82
2021/11/29 03:43:57;;;;;;;3.90;2.80;;;;;;;;;;5015812;28;20207;-82
2021/11/29 03:46:25;;;;;;;5.75;2.47;;;;;;;;;;5017161;28;20780;-82
2021/11/29 03:48:53;;;;;;;3.30;2.67;;;;;;;;;;5016508;28;20238;-81
2021/11/29 03:51:20;;;;;;;3.67;2.75;;;;;;;;;;5022795;28;20249;-84
2021/11/29 03:53:48;;;;;;;5.63;2.55;;;;;;;;;;5036681;28;20607;-82
2021/11/29 03:56:16;;;;;;;3.25;2.90;;;;;;;;;;5035890;28;20630;-84
2021/11/29 03:58:45;;;;;;;5.20;3.72;;;;;;;;;;5036303;28;20282;-83
2021/11/29 04:01:12;;;;;;;3.28;2.97;;;;;;;;;;5036274;28;20294;-83
2021/11/29 04:03:40;;;;;;;7.13;3.08;;;;;;;;;;5036246;28;20256;-83
2021/11/29 04:06:08;;;;;;;4.20;3.55;;;;;;;;;;5036424;28;20269;-83
2021/11/29 04:08:36;;;;;;;4.18;3.17;;;;;;;;;;5036784;28;20232;-81
2021/11/29 04:11:04;;;;;;;5.88;3.55;;;;;;;;;;5035673;28;20244;-83
2021/11/29 04:13:32;;;;;;;4.30;3.30;;;;;;;;;;5036766;28;20215;-83
2021/11/29 04:16:01;;;;;;;5.30;3.28;;;;;;;;;;5035976;28;20233;-83
2021/11/29 04:18:29;;;;;;;3.28;3.00;;;;;;;;;;5036087;28;20281;-83
2021/11/29 04:20:57;;;;;;;4.47;4.07;;;;;;;;;;5035943;28;20637;-82
2021/11/29 04:23:25;;;;;;;8.15;3.60;;;;;;;;;;5036485;28;20194;-83
2021/11/29 04:25:55;;;;;;;3.45;2.95;;;;;;;;;;5035871;28;20672;-83
2021/11/29 04:28:23;;;;;;;3.25;2.95;;;;;;;;;;5036510;28;20225;-82
2021/11/29 04:30:51;;;;;;;3.67;3.38;;;;;;;;;;5035635;28;20194;-82
2021/11/29 04:33:20;;;;;;;3.80;3.40;;;;;;;;;;5036141;28;20214;-83
2021/11/29 04:35:49;;;;;;;3.67;2.83;;;;;;;;;;5035677;28;20630;-83
2021/11/29 04:38:17;;;;;;;5.57;3.63;;;;;;;;;;5035785;28;21003;-82
2021/11/29 04:40:45;;;;;;;4.00;3.40;;;;;;;;;;5036054;28;20618;-83
2021/11/29 04:43:13;;;;;;;4.22;3.65;;;;;;;;;;5038207;28;20222;-83
2021/11/29 04:45:41;;;;;;;3.10;2.80;;;;;;;;;;5040634;28;20190;-83
2021/11/29 04:48:08;;;;;;;4.30;3.58;;;;;;;;;;5039442;28;20206;-83
2021/11/29 04:50:38;;;;;;;4.82;3.53;;;;;;;;;;5036082;28;20743;-83
2021/11/29 04:53:06;;;;;;;4.55;3.22;;;;;;;;;;5036015;28;20222;-83
2021/11/29 04:55:34;;;;;;;4.03;3.55;;;;;;;;;;5036165;28;20218;-83
2021/11/29 04:58:02;;;;;;;6.38;4.05;;;;;;;;;;5035526;28;20222;-84
2021/11/29 05:00:30;;;;;;;4.75;3.63;;;;;;;;;;5034936;28;20736;-83
2021/11/29 05:02:58;;;;;;;5.43;4.05;;;;;;;;;;5035849;28;20222;-82
2021/11/29 05:05:25;;;;;;;5.70;4.63;;;;;;;;;;5036690;28;20186;-83
2021/11/29 05:07:54;;;;;;;3.67;3.38;;;;;;;;;;5037228;28;20194;-84
2021/11/29 05:10:22;;;;;;;4.22;3.83;;;;;;;;;;5036419;28;20258;-82
2021/11/29 05:12:49;;;;;;;4.55;3.10;;;;;;;;;;5043901;28;20228;-81
2021/11/29 05:15:17;;;;;;;3.15;2.83;;;;;;;;;;5043225;28;20650;-80
2021/11/29 05:17:45;;;;;;;2.80;2.60;;;;;;;;;;5039676;28;20230;-82
2021/11/29 05:20:12;;;;;;;3.17;2.70;;;;;;;;;;5040506;28;20708;-82
2021/11/29 05:22:40;;;;;;;5.93;3.58;;;;;;;;;;5045154;28;20210;-82
2021/11/29 05:25:10;;;;;;;7.38;3.28;;;;;;;;;;5043925;28;20201;-82
2021/11/29 05:27:38;;;;;;;2.72;2.40;;;;;;;;;;5041712;28;20210;-83
2021/11/29 05:30:07;;;;;;;5.93;3.00;;;;;;;;;;5045059;28;20230;-82
2021/11/29 05:32:35;;;;;;;3.95;3.17;;;;;;;;;;5039042;28;20198;-83
2021/11/29 05:35:03;;;;;;;3.45;2.70;;;;;;;;;;5034782;28;20680;-83
2021/11/29 05:37:30;;;;;;;2.67;2.42;;;;;;;;;;5035653;28;20238;-82
2021/11/29 05:39:58;;;;;;;5.75;3.40;;;;;;;;;;5035173;28;20684;-82
2021/11/29 05:42:27;;;;;;;5.25;2.83;;;;;;;;;;5034233;28;20233;-82
2021/11/29 05:44:55;;;;;;;4.45;2.28;;;;;;;;;;5034988;28;20214;-81
2021/11/29 05:47:23;;;;;;;2.28;1.98;;;;;;;;;;5034759;28;20741;-83
2021/11/29 05:49:51;;;;;;;2.60;2.35;;;;;;;;;;5034270;28;20334;-81
2021/11/29 05:52:18;;;;;;;4.70;2.67;;;;;;;;;;5034916;28;20199;-82
2021/11/29 05:54:46;;;;;;;4.60;2.92;;;;;;;;;;5034865;28;20223;-82
2021/11/29 05:57:14;;;;;;;4.15;2.83;;;;;;;;;;5035546;28;20233;-82
2021/11/29 05:59:43;;;;;;;7.82;2.78;;;;;;;;;;5037711;28;20282;-81
2021/11/29 06:02:10;;;;;;;3.65;2.92;;;;;;;;;;5038039;28;20202;-82
2021/11/29 06:04:38;;;;;;;2.83;2.28;;;;;;;;;;5034135;28;20294;-80
2021/11/29 06:07:06;;;;;;;2.67;2.20;;;;;;;;;;5033796;28;20234;-82
2021/11/29 06:09:33;;;;;;;3.08;2.53;;;;;;;;;;5034046;28;20318;-82
2021/11/29 06:12:01;;;;;;;4.13;3.67;;;;;;;;;;5033725;28;20233;-82
2021/11/29 06:14:29;;;;;;;2.72;2.10;;;;;;;;;;5033951;28;20249;-82
2021/11/29 06:16:58;;;;;;;2.78;2.00;;;;;;;;;;5035270;28;20280;-82
2021/11/29 06:19:25;;;;;;;4.88;3.17;;;;;;;;;;5035104;28;20357;-81
2021/11/29 06:21:53;;;;;;;4.40;2.42;;;;;;;;;;5036508;28;20234;-84
2021/11/29 06:24:20;;;;;;;3.53;2.38;;;;;;;;;;5040628;28;20273;-82
2021/11/29 06:26:48;;;;;;;5.10;3.17;;;;;;;;;;5044921;28;20229;-83
2021/11/29 06:29:16;;;;;;;3.03;1.98;;;;;;;;;;5040085;28;20283;-81
2021/11/29 06:31:44;;;;;;;3.97;3.13;;;;;;;;;;5036135;28;20233;-82
2021/11/29 06:34:13;;;;;;;4.72;3.10;;;;;;;;;;5036984;28;20218;-82
2021/11/29 06:36:41;;;;;;;3.42;2.47;;;;;;;;;;5036061;28;20298;-84
2021/11/29 06:39:09;;;;;;;3.45;2.53;;;;;;;;;;5035022;28;20250;-82
2021/11/29 06:41:37;;;;;;;4.60;3.33;;;;;;;;;;5035046;28;20675;-83
2021/11/29 06:44:05;;;;;;;4.03;2.65;;;;;;;;;;5036407;28;20632;-82
2021/11/29 06:46:33;;;;;;;5.93;3.08;;;;;;;;;;5036614;28;20221;-82
2021/11/29 06:49:01;;;;;;;3.45;2.47;;;;;;;;;;5035760;28;20703;-82
2021/11/29 06:51:32;;;;;;;2.50;2.13;;;;;;;;;;5035574;28;20230;-83
2021/11/29 06:54:00;;;;;;;3.40;2.45;;;;;;;;;;5035909;28;20198;-81
2021/11/29 06:56:28;;;;;;;6.00;2.95;;;;;;;;;;5035402;28;20664;-83
2021/11/29 06:58:55;;;;;;;2.72;2.45;;;;;;;;;;5036250;28;20257;-84
2021/11/29 07:01:23;;;;;;;2.92;2.60;;;;;;;;;;5035029;28;20230;-82
2021/11/29 07:03:51;;;;;;;4.90;3.72;;;;;;;;;;5036013;28;20219;-83
2021/11/29 07:06:19;;;;;;;4.57;2.95;;;;;;;;;;5035948;28;20630;-83
2021/11/29 07:08:48;;;;;;;3.75;2.88;;;;;;;;;;5035012;28;20214;-82
2021/11/29 07:11:16;;;;;;;2.67;2.47;;;;;;;;;;5035868;28;20313;-83
2021/11/29 07:13:45;;;;;;;3.08;2.80;;;;;;;;;;5038062;28;20226;-82
2021/11/29 07:16:13;;;;;;;5.38;3.33;;;;;;;;;;5037703;28;20206;-82
2021/11/29 07:18:42;;;;;;;3.90;2.50;;;;;;;;;;5036396;28;20317;-82
2021/11/29 07:21:11;;;;;;;2.80;2.20;;;;;;;;;;5036314;28;20194;-84
2021/11/29 07:23:38;;;;;;;2.95;2.58;;;;;;;;;;5036285;28;20187;-83
2021/11/29 07:26:08;;;;;;;4.57;3.28;;;;;;;;;;5036641;28;20203;-82
2021/11/29 07:28:37;;;;;;;3.75;3.05;;;;;;;;;;5036346;28;20241;-79
2021/11/29 07:31:06;;;;;;;4.75;3.20;;;;;;;;;;5023654;28;20245;-80
2021/11/29 07:33:33;;;;;;;3.13;2.88;;;;;;;;;;5038599;28;20229;-82
2021/11/29 07:36:01;;;;;;;6.30;3.38;;;;;;;;;;5040225;28;20211;-80
2021/11/29 07:38:29;;;;;;;3.65;2.70;;;;;;;;;;5038550;28;20720;-80
2021/11/29 07:40:57;;;;;;;3.13;2.88;;;;;;;;;;5039055;28;20798;-80
2021/11/29 07:43:26;;;;;;;4.63;3.17;;;;;;;;;;5038264;28;20632;-80
2021/11/29 07:45:54;;;;;;;4.45;3.10;;;;;;;;;;5036706;28;20203;-79
2021/11/29 07:48:22;;;;;;;5.07;2.40;;;;;;;;;;5036513;28;20672;-80
2021/11/29 07:50:50;;;;;;;5.68;3.40;;;;;;;;;;5038432;28;20281;-80
2021/11/29 07:53:17;;;;;;;2.40;2.20;;;;;;;;;;5037269;28;20577;-79
2021/11/29 07:55:45;;;;;;;3.00;2.70;;;;;;;;;;5039401;28;20225;-80
2021/11/29 07:58:16;;;;;;;3.20;2.90;;;;;;;;;;5034668;28;20229;-80
2021/11/29 08:00:46;;;;;;;3.50;2.55;;;;;;;;;;5036681;28;20195;-81
2021/11/29 08:03:13;;;;;;;2.38;2.17;;;;;;;;;;5037679;28;20440;-80
2021/11/29 08:05:42;;;;;;;3.15;2.58;;;;;;;;;;5038718;28;20218;-80
2021/11/29 08:08:11;;;;;;;4.28;2.72;;;;;;;;;;5043541;28;20661;-80
2021/11/29 08:10:40;;;;;;;2.90;2.58;;;;;;;;;;5038286;28;20242;-82
2021/11/29 08:13:09;;;;;;;5.53;2.53;;;;;;;;;;5037641;28;20191;-79
2021/11/29 08:15:38;;;;;;;2.88;2.58;;;;;;;;;;5036619;28;20259;-81
2021/11/29 08:18:09;;;;;;;2.22;2.03;;;;;;;;;;5038533;28;20234;-81
2021/11/29 08:20:37;;;;;;;3.65;3.33;;;;;;;;;;5037694;28;20202;-80
2021/11/29 08:23:05;;;;;;;2.97;2.40;;;;;;;;;;5036969;28;20233;-83
2021/11/29 08:25:33;;;;;;;2.92;2.08;;;;;;;;;;5036165;28;20722;-84
2021/11/29 08:28:01;;;;;;;6.88;2.60;;;;;;;;;;5034658;28;20221;-81
2021/11/29 08:30:29;;;;;;;3.55;2.40;;;;;;;;;;5021107;28;20309;-83
2021/11/29 08:32:57;;;;;;;4.95;2.85;;;;;;;;;;5036144;28;20190;-82
2021/11/29 08:35:28;;;;;;;5.80;2.00;;;;;;;;;;5036034;28;20201;-84
2021/11/29 08:37:58;;;;;;;2.92;2.72;;;;;;;;;;5036462;28;20194;-83
2021/11/29 08:40:30;;;;;;;2.53;2.33;;;;;;;;;;5037214;28;20216;-82
2021/11/29 08:43:00;;;;;;;5.30;2.80;;;;;;;;;;5039154;28;20222;-84
2021/11/29 08:45:29;;;;;;;3.30;2.75;;;;;;;;;;5039068;28;20183;-84
2021/11/29 08:47:57;;;;;;;3.20;2.83;;;;;;;;;;5038810;28;20186;-84
2021/11/29 08:52:54;;;;;;;3.30;2.95;;;;;;;;;;5048450;22;20655;-81
2021/11/29 08:55:22;;;;;;;4.38;2.80;;;;;;;;;;5048461;28;20225;-81
2021/11/29 08:57:49;;;;;;;4.38;2.88;;;;;;;;;;5051791;28;20182;-82
2021/11/29 09:00:19;;;;;;;5.63;2.85;;;;;;;;;;5051984;28;20225;-81
2021/11/29 09:02:49;;;;;;;4.43;2.70;;;;;;;;;;5051900;28;20297;-81
2021/11/29 09:05:18;;;;;;;6.65;3.00;;;;;;;;;;5045549;28;20221;-81
2021/11/29 09:07:46;;;;;;;4.25;2.92;;;;;;;;;;5035546;28;20200;-81
2021/11/29 09:10:16;;;;;;;2.78;2.40;;;;;;;;;;5031759;28;20225;-80
2021/11/29 09:12:44;;;;;;;4.13;2.80;;;;;;;;;;5032239;28;20226;-83
2021/11/29 09:15:15;;;;;;;3.85;3.10;;;;;;;;;;5031257;28;20225;-81
2021/11/29 09:17:43;;;;;;;8.25;3.08;;;;;;;;;;5032028;28;20237;-81
2021/11/29 09:20:14;;;;;;;4.13;3.33;;;;;;;;;;5032201;28;20246;-80
2021/11/29 09:22:42;;;;;;;5.47;2.80;;;;;;;;;;5032810;28;20265;-81
2021/11/29 09:25:12;;;;;;;2.95;2.42;;;;;;;;;;5031883;28;20679;-80
2021/11/29 09:27:43;;;;;;;3.75;2.83;;;;;;;;;;5031999;28;20574;-80
2021/11/29 09:30:13;;;;;;;2.55;2.35;;;;;;;;;;5019172;28;20734;-80
2021/11/29 09:32:41;;;;;;;2.92;2.53;;;;;;;;;;5030014;28;20253;-80
2021/11/29 09:35:12;;;;;;;4.90;2.85;;;;;;;;;;5032048;28;20218;-80
2021/11/29 09:37:40;;;;;;;2.78;2.55;;;;;;;;;;5031531;28;20278;-82
2021/11/29 09:40:13;;;;;;;6.78;3.25;;;;;;;;;;5031764;28;20222;-80
2021/11/29 09:42:42;;;;;;;3.65;3.35;;;;;;;;;;5042931;28;20249;-80
2021/11/29 09:45:13;;;;;;;4.07;3.78;;;;;;;;;;5050868;28;20780;-80
2021/11/29 09:47:41;;;;;;;4.10;3.42;;;;;;;;;;5051159;28;20232;-80
2021/11/29 09:50:10;;;;;;;3.10;2.80;;;;;;;;;;5051477;28;20217;-80
2021/11/29 09:52:38;;;;;;;3.83;3.45;;;;;;;;;;5051068;28;20229;-80
2021/11/29 09:55:10;;;;;;;5.20;3.58;;;;;;;;;;5051761;28;20217;-82
2021/11/29 09:57:41;;;;;;;3.03;2.83;;;;;;;;;;5052721;28;20634;-82
2021/11/29 10:00:14;;;;;;;3.70;3.40;;;;;;;;;;5054475;28;20186;-82
2021/11/29 10:02:42;;;;;;;4.25;3.25;;;;;;;;;;5055066;28;20709;-80
2021/11/29 10:05:10;;;;;;;3.20;2.97;;;;;;;;;;5048853;28;20671;-84
2021/11/29 10:07:45;;;;;;;3.90;3.50;;;;;;;;;;5044680;28;20266;-82
2021/11/29 10:10:17;;;;;;;3.83;3.53;;;;;;;;;;5036965;28;20289;-81
2021/11/29 10:12:48;;;;;;;3.22;2.92;;;;;;;;;;5042243;28;20783;-81
2021/11/29 10:15:21;;;;;;;3.80;3.17;;;;;;;;;;5033731;28;20191;-81
2021/11/29 10:17:53;;;;;;;3.38;3.17;;;;;;;;;;5034292;28;20233;-80
2021/11/29 10:20:21;;;;;;;2.42;2.22;;;;;;;;;;5034883;28;20225;-82
2021/11/29 10:23:02;;;;;;;3.08;2.78;;;;;;;;;;5045828;28;20287;-82
2021/11/29 10:25:30;;;;;;;2.67;2.50;;;;;;;;;;5054681;28;20205;-82
2021/11/29 10:28:00;;;;;;;2.90;2.70;;;;;;;;;;5053919;28;20244;-82
2021/11/29 10:30:29;;;;;;;3.10;2.90;;;;;;;;;;5054450;28;20264;-82
2021/11/29 10:32:57;;;;;;;2.67;2.47;;;;;;;;;;5055023;28;20222;-84
2021/11/29 10:35:36;;;;;;;2.95;2.67;;;;;;;;;;5054847;28;20287;-84
2021/11/29 10:38:05;;;;;;;4.00;3.00;;;;;;;;;;5054555;28;20201;-82
2021/11/29 10:40:33;;;;;;;2.92;2.72;;;;;;;;;;5055479;28;20193;-82
2021/11/29 10:43:08;;;;;;;3.47;3.28;;;;;;;;;;5054955;28;20228;-82
2021/11/29 10:45:40;;;;;;;3.03;2.80;;;;;;;;;;5054591;28;20219;-82
2021/11/29 10:48:25;;;;;;;3.50;3.28;;;;;;;;;;5054467;28;20208;-82
2021/11/29 10:51:08;;;;;;;3.78;3.47;;;;;;;;;;5054894;28;20372;-82
2021/11/29 10:53:53;;;;;;;3.45;3.22;;;;;;;;;;5053931;28;20209;-82
2021/11/29 10:56:21;;;;;;;3.58;3.28;;;;;;;;;;5054018;28;20296;-82
2021/11/29 10:58:53;;;;;;;2.90;2.70;;;;;;;;;;5053986;28;20640;-82
2021/11/29 11:01:38;;;;;;;3.15;2.95;;;;;;;;;;5054338;28;20757;-82
2021/11/29 11:04:08;;;;;;;3.70;3.40;;;;;;;;;;5053658;28;20683;-82
2021/11/29 11:06:38;;;;;;;4.00;3.70;;;;;;;;;;5053835;28;20241;-82
2021/11/29 11:09:18;;;;;;;3.22;3.00;;;;;;;;;;5052579;28;20194;-82
2021/11/29 11:11:49;;;;;;;3.30;3.00;;;;;;;;;;5053406;28;20698;-82
2021/11/29 11:14:21;;;;;;;2.50;2.30;;;;;;;;;;5054273;28;20233;-82
2021/11/29 11:16:59;;;;;;;3.58;3.28;;;;;;;;;;5054473;28;20233;-83
2021/11/29 11:19:33;;;;;;;3.30;2.92;;;;;;;;;;5054050;28;20205;-83
2021/11/29 11:22:03;;;;;;;2.85;2.65;;;;;;;;;;5054008;28;20251;-82
2021/11/29 11:24:34;;;;;;;2.75;2.63;;;;;;;;;;5054163;28;20209;-82
2021/11/29 11:27:04;;;;;;;2.58;2.38;;;;;;;;;;5054929;28;20202;-82
2021/11/29 11:29:44;;;;;;;2.80;2.60;;;;;;;;;;5052744;28;20687;-82
2021/11/29 11:32:17;;;;;;;2.38;2.17;;;;;;;;;;5035836;28;20703;-82
2021/11/29 11:34:47;;;;;;;2.60;2.40;;;;;;;;;;5035952;28;20230;-82
2021/11/29 11:37:16;;;;;;;3.17;2.88;;;;;;;;;;5036349;28;20793;-82
2021/11/29 11:39:44;;;;;;;2.40;2.20;;;;;;;;;;5035869;28;20702;-82
2021/11/29 11:42:12;;;;;;;2.58;2.38;;;;;;;;;;5036327;28;20254;-82
2021/11/29 11:44:42;;;;;;;2.88;2.67;;;;;;;;;;5035730;28;20234;-82
2021/11/29 11:47:11;;;;;;;2.20;2.00;;;;;;;;;;5036050;28;20203;-82
2021/11/29 11:49:41;;;;;;;2.50;2.30;;;;;;;;;;5035918;28;20238;-82
2021/11/29 11:52:11;;;;;;;2.65;2.45;;;;;;;;;;5035534;28;20317;-82
2021/11/29 11:54:40;;;;;;;3.22;3.03;;;;;;;;;;5035375;28;20237;-82
2021/11/29 11:57:10;;;;;;;2.95;2.72;;;;;;;;;;5035506;28;20202;-82
2021/11/29 12:00:03;;;;;;;3.38;3.15;;;;;;;;;;5035312;28;20579;-83
2021/11/29 12:03:07;;;;;;;3.85;3.55;;;;;;;;;;5032582;28;20241;-82
2021/11/29 12:05:40;;;;;;;3.50;3.28;;;;;;;;;;5035387;28;20702;-82
2021/11/29 12:08:46;;;;;;;4.57;4.28;;;;;;;;;;5036296;28;20229;-82
2021/11/29 12:11:39;;;;;;;4.00;3.70;;;;;;;;;;5034351;28;20280;-82
2021/11/29 12:14:19;;;;;;;4.72;4.43;;;;;;;;;;5034502;28;20229;-82
2021/11/29 12:16:51;;;;;;;3.20;3.00;;;;;;;;;;5035134;28;20305;-83
2021/11/29 12:19:42;;;;;;;3.60;3.30;;;;;;;;;;5034943;28;20268;-82
2021/11/29 12:22:33;;;;;;;3.35;3.10;;;;;;;;;;5035553;28;20603;-82
2021/11/29 12:25:17;;;;;;;3.40;3.10;;;;;;;;;;5034622;28;20209;-82
2021/11/29 12:27:48;;;;;;;3.67;3.38;;;;;;;;;;5035035;28;20656;-83
2021/11/29 12:30:37;;;;;;;4.47;4.07;;;;;;;;;;5035146;28;20248;-82
2021/11/29 12:33:10;;;;;;;3.58;3.28;;;;;;;;;;5035048;28;20214;-83
2021/11/29 12:35:40;;;;;;;4.50;3.30;;;;;;;;;;5035187;28;20226;-83
2021/11/29 12:38:12;;;;;;;4.15;3.72;;;;;;;;;;5035341;28;20206;-83
2021/11/29 12:40:52;;;;;;;4.32;3.92;;;;;;;;;;5035100;28;20225;-83
2021/11/29 12:43:40;;;;;;;5.13;4.63;;;;;;;;;;5034961;28;20202;-82
2021/11/29 12:46:24;;;;;;;4.00;3.58;;;;;;;;;;5034923;28;20297;-82
2021/11/29 12:48:57;;;;;;;2.90;2.70;;;;;;;;;;5034406;28;20233;-82
2021/11/29 12:51:56;;;;;;;3.50;3.20;;;;;;;;;;5034204;28;20262;-82
2021/11/29 12:54:43;;;;;;;4.75;4.35;;;;;;;;;;5034235;28;20256;-83
2021/11/29 12:57:28;;;;;;;4.07;3.70;;;;;;;;;;5035261;28;20206;-82
2021/11/29 12:59:58;;;;;;;7.55;3.60;;;;;;;;;;5035234;28;20281;-83
2021/11/29 13:03:00;;;;;;;5.50;4.88;;;;;;;;;;5034854;28;20304;-83
2021/11/29 13:05:42;;;;;;;4.65;4.20;;;;;;;;;;4992169;28;20297;-83
2021/11/29 13:08:19;;;;;;;5.90;4.25;;;;;;;;;;5034495;28;20289;-83
2021/11/29 13:11:07;;;;;;;3.85;3.55;;;;;;;;;;5034316;28;20212;-83
2021/11/29 13:13:48;;;;;;;3.58;3.33;;;;;;;;;;5034715;28;20730;-83
2021/11/29 13:16:40;;;;;;;3.28;3.03;;;;;;;;;;5034302;28;20199;-83
2021/11/29 13:19:20;;;;;;;3.35;3.05;;;;;;;;;;5034684;28;20664;-83
2021/11/29 13:21:53;;;;;;;3.30;3.00;;;;;;;;;;5035254;28;20734;-83
2021/11/29 13:24:30;;;;;;;3.15;2.95;;;;;;;;;;5034545;28;20233;-83
2021/11/29 13:27:05;;;;;;;3.65;3.20;;;;;;;;;;5034245;28;20237;-83
2021/11/29 13:29:38;;;;;;;3.55;3.25;;;;;;;;;;5034592;28;20198;-83
2021/11/29 13:32:09;;;;;;;3.08;2.88;;;;;;;;;;5036759;28;20249;-83
2021/11/29 13:34:39;;;;;;;4.03;3.70;;;;;;;;;;5038847;28;20264;-83
2021/11/29 13:37:12;;;;;;;3.22;2.92;;;;;;;;;;5037335;28;20710;-83
2021/11/29 13:39:43;;;;;;;3.38;3.05;;;;;;;;;;5038719;28;20222;-82
2021/11/29 13:42:22;;;;;;;4.18;3.78;;;;;;;;;;5038338;28;20257;-82
2021/11/29 13:44:58;;;;;;;3.55;3.25;;;;;;;;;;5037977;28;20555;-81
2021/11/29 13:47:29;;;;;;;4.30;3.92;;;;;;;;;;5037318;28;20289;-82
2021/11/29 13:50:07;;;;;;;4.50;4.07;;;;;;;;;;5038593;28;20222;-83
2021/11/29 13:52:37;;;;;;;4.38;3.97;;;;;;;;;;5038000;28;20225;-82
2021/11/29 13:55:09;;;;;;;3.45;3.15;;;;;;;;;;5038957;28;20230;-83
2021/11/29 13:57:42;;;;;;;4.82;3.97;;;;;;;;;;5039301;28;20273;-83
2021/11/29 14:00:27;;;;;;;4.00;3.40;;;;;;;;;;5039106;28;20217;-82
2021/11/29 14:03:11;;;;;;;4.28;3.78;;;;;;;;;;5038347;28;20193;-82
2021/11/29 14:05:43;;;;;;;2.95;2.70;;;;;;;;;;5038861;28;20244;-82
2021/11/29 14:08:16;;;;;;;4.82;4.43;;;;;;;;;;5038175;28;20202;-83
2021/11/29 14:10:50;;;;;;;3.88;3.58;;;;;;;;;;5038714;28;20620;-83
2021/11/29 14:31:13;;;;;;;3.42;3.15;;;;;;;;;;5238576;22;20237;-82
2021/11/29 14:33:42;;;;;;;3.17;2.88;;;;;;;;;;5058416;28;20640;-83
2021/11/29 14:36:33;;;;;;;2.97;2.78;;;;;;;;;;5058858;28;20288;-83
2021/11/29 14:39:02;;;;;;;2.70;2.50;;;;;;;;;;5059185;28;20194;-82
2021/11/29 14:41:30;;;;;;;3.38;2.65;;;;;;;;;;5058520;28;20263;-82
2021/11/29 14:44:00;;;;;;;2.63;2.42;;;;;;;;;;5058382;28;20241;-83
2021/11/29 14:46:33;;;;;;;2.42;2.22;;;;;;;;;;5057257;28;20225;-82
2021/11/29 14:49:36;;;;;;;3.00;2.80;;;;;;;;;;5058579;28;20218;-83
2021/11/29 14:52:09;;;;;;;3.03;2.83;;;;;;;;;;5057280;28;20670;-83
2021/11/29 14:54:42;;;;;;;2.78;2.58;;;;;;;;;;5058284;28;20206;-83
2021/11/29 14:57:14;;;;;;;3.38;3.08;;;;;;;;;;5057805;28;20194;-84
2021/11/29 14:59:43;;;;;;;3.28;3.03;;;;;;;;;;5058471;28;20247;-84
2021/11/29 15:02:15;;;;;;;3.55;3.25;;;;;;;;;;5057325;28;20645;-83
2021/11/29 15:04:46;;;;;;;3.63;3.33;;;;;;;;;;5057898;28;20220;-84
2021/11/29 15:07:17;;;;;;;3.13;2.92;;;;;;;;;;5057845;28;20186;-84
2021/11/29 15:09:59;;;;;;;3.58;2.75;;;;;;;;;;5057920;28;20201;-83
2021/11/29 15:12:31;;;;;;;3.90;3.50;;;;;;;;;;5058960;28;20221;-83
2021/11/29 15:15:01;;;;;;;3.50;3.20;;;;;;;;;;5058762;28;20226;-83
2021/11/29 15:17:30;;;;;;;3.10;2.90;;;;;;;;;;5057037;28;20194;-83
2021/11/29 15:19:58;;;;;;;4.15;3.80;;;;;;;;;;5057534;28;20202;-84
2021/11/29 15:22:29;;;;;;;4.47;3.60;;;;;;;;;;5058273;28;20256;-85
2021/11/29 15:25:00;;;;;;;3.67;3.38;;;;;;;;;;5058397;28;20542;-85